sensor_id;sensor_type;location;lat;lon;timestamp;pressure;altitude;pressure_sealevel;temperature;humidity
61537;BME280;48695;53.480;-6.300;2023-04-03T00:00:29;102332.81;;;10.90;59.66
61537;BME280;48695;53.480;-6.300;2023-04-03T00:02:55;102330.19;;;10.89;59.58
61537;BME280;48695;53.480;-6.300;2023-04-03T00:05:20;102326.72;;;10.87;59.53
61537;BME280;48695;53.480;-6.300;2023-04-03T00:07:46;102316.25;;;10.81;60.04
61537;BME280;48695;53.480;-6.300;2023-04-03T00:10:11;102320.59;;;10.82;60.35
61537;BME280;48695;53.480;-6.300;2023-04-03T00:12:37;102324.97;;;10.80;59.78
61537;BME280;48695;53.480;-6.300;2023-04-03T00:15:03;102322.34;;;10.77;60.58
61537;BME280;48695;53.480;-6.300;2023-04-03T00:17:29;102318.84;;;10.75;60.05
61537;BME280;48695;53.480;-6.300;2023-04-03T00:19:54;102315.34;;;10.73;60.58
61537;BME280;48695;53.480;-6.300;2023-04-03T00:22:19;102315.34;;;10.71;60.15
61537;BME280;48695;53.480;-6.300;2023-04-03T00:24:45;102315.34;;;10.70;60.20
61537;BME280;48695;53.480;-6.300;2023-04-03T00:27:10;102316.22;;;10.67;59.95
61537;BME280;48695;53.480;-6.300;2023-04-03T00:29:36;102306.59;;;10.63;59.77
61537;BME280;48695;53.480;-6.300;2023-04-03T00:32:01;102307.47;;;10.59;60.22
61537;BME280;48695;53.480;-6.300;2023-04-03T00:34:27;102302.25;;;10.54;60.02
61537;BME280;48695;53.480;-6.300;2023-04-03T00:36:53;102292.66;;;10.50;60.27
61537;BME280;48695;53.480;-6.300;2023-04-03T00:39:18;102288.28;;;10.46;60.47
61537;BME280;48695;53.480;-6.300;2023-04-03T00:41:43;102289.13;;;10.44;60.52
61537;BME280;48695;53.480;-6.300;2023-04-03T00:46:52;102274.31;;;10.35;60.62
61537;BME280;48695;53.480;-6.300;2023-04-03T00:49:18;102254.19;;;10.19;60.99
61537;BME280;48695;53.480;-6.300;2023-04-03T00:51:43;102276.88;;;10.29;60.50
61537;BME280;48695;53.480;-6.300;2023-04-03T00:54:09;102279.50;;;10.26;61.38
61537;BME280;48695;53.480;-6.300;2023-04-03T00:56:36;102271.69;;;10.24;61.17
61537;BME280;48695;53.480;-6.300;2023-04-03T00:59:06;102282.13;;;10.24;61.17
61537;BME280;48695;53.480;-6.300;2023-04-03T01:01:33;102281.19;;;10.21;61.43
61537;BME280;48695;53.480;-6.300;2023-04-03T01:04:00;102280.31;;;10.20;61.44
61537;BME280;48695;53.480;-6.300;2023-04-03T01:06:31;102276.84;;;10.20;61.69
61537;BME280;48695;53.480;-6.300;2023-04-03T01:08:59;102260.25;;;10.08;61.41
61537;BME280;48695;53.480;-6.300;2023-04-03T01:11:25;102276.81;;;10.17;61.52
61537;BME280;48695;53.480;-6.300;2023-04-03T01:13:51;102274.19;;;10.13;61.15
61537;BME280;48695;53.480;-6.300;2023-04-03T01:16:17;102267.22;;;10.09;61.73
61537;BME280;48695;53.480;-6.300;2023-04-03T01:18:43;102270.72;;;10.11;61.53
61537;BME280;48695;53.480;-6.300;2023-04-03T01:21:27;102269.84;;;10.09;61.05
61537;BME280;48695;53.480;-6.300;2023-04-03T01:26:31;102263.72;;;10.04;62.03
61537;BME280;48695;53.480;-6.300;2023-04-03T01:28:58;102266.31;;;10.03;62.04
61537;BME280;48695;53.480;-6.300;2023-04-03T01:31:41;102266.31;;;10.01;61.83
61537;BME280;48695;53.480;-6.300;2023-04-03T01:34:06;102265.41;;;9.98;61.94
61537;BME280;48695;53.480;-6.300;2023-04-03T01:36:32;102242.75;;;9.86;62.08
61537;BME280;48695;53.480;-6.300;2023-04-03T01:38:59;102262.78;;;9.93;62.04
61537;BME280;48695;53.480;-6.300;2023-04-03T01:41:25;102265.41;;;9.90;62.56
61537;BME280;48695;53.480;-6.300;2023-04-03T01:43:51;102270.59;;;9.87;62.21
61537;BME280;48695;53.480;-6.300;2023-04-03T01:46:17;102258.41;;;9.86;62.52
61537;BME280;48695;53.480;-6.300;2023-04-03T01:48:43;102254.94;;;9.84;62.75
61537;BME280;48695;53.480;-6.300;2023-04-03T01:51:08;102251.44;;;9.82;62.97
61537;BME280;48695;53.480;-6.300;2023-04-03T01:53:34;102251.44;;;9.79;62.72
61537;BME280;48695;53.480;-6.300;2023-04-03T01:56:00;102237.47;;;9.71;62.96
61537;BME280;48695;53.480;-6.300;2023-04-03T01:58:25;102258.34;;;9.77;63.08
61537;BME280;48695;53.480;-6.300;2023-04-03T02:00:51;102239.13;;;9.62;62.71
61537;BME280;48695;53.480;-6.300;2023-04-03T02:03:17;102255.75;;;9.74;62.97
61537;BME280;48695;53.480;-6.300;2023-04-03T02:05:42;102254.84;;;9.72;63.01
61537;BME280;48695;53.480;-6.300;2023-04-03T02:08:08;102247.03;;;9.70;62.96
61537;BME280;48695;53.480;-6.300;2023-04-03T02:10:33;102232.22;;;9.68;62.86
61537;BME280;48695;53.480;-6.300;2023-04-03T02:12:59;102240.03;;;9.63;63.13
61537;BME280;48695;53.480;-6.300;2023-04-03T02:15:24;102237.44;;;9.65;63.08
61537;BME280;48695;53.480;-6.300;2023-04-03T02:17:50;102239.13;;;9.62;62.89
61537;BME280;48695;53.480;-6.300;2023-04-03T02:20:16;102241.75;;;9.62;63.06
61537;BME280;48695;53.480;-6.300;2023-04-03T02:22:41;102237.41;;;9.61;63.33
61537;BME280;48695;53.480;-6.300;2023-04-03T02:25:07;102233.06;;;9.59;63.32
61537;BME280;48695;53.480;-6.300;2023-04-03T02:27:33;102233.91;;;9.59;63.17
61537;BME280;48695;53.480;-6.300;2023-04-03T02:29:58;102232.19;;;9.58;63.43
61537;BME280;48695;53.480;-6.300;2023-04-03T02:32:23;102234.78;;;9.58;63.36
61537;BME280;48695;53.480;-6.300;2023-04-03T02:34:49;102213.88;;;9.49;63.89
61537;BME280;48695;53.480;-6.300;2023-04-03T02:37:15;102227.84;;;9.60;63.68
61537;BME280;48695;53.480;-6.300;2023-04-03T02:39:40;102209.56;;;9.60;63.68
61537;BME280;48695;53.480;-6.300;2023-04-03T02:42:06;102214.78;;;9.60;63.65
61537;BME280;48695;53.480;-6.300;2023-04-03T02:44:32;102214.75;;;9.51;63.43
61537;BME280;48695;53.480;-6.300;2023-04-03T02:46:57;102210.44;;;9.58;63.39
61537;BME280;48695;53.480;-6.300;2023-04-03T02:49:23;102209.59;;;9.59;63.07
61537;BME280;48695;53.480;-6.300;2023-04-03T02:51:48;102209.56;;;9.57;62.85
61537;BME280;48695;53.480;-6.300;2023-04-03T02:54:14;102212.16;;;9.56;62.87
61537;BME280;48695;53.480;-6.300;2023-04-03T02:56:39;102197.38;;;9.53;62.85
61537;BME280;48695;53.480;-6.300;2023-04-03T02:59:05;102181.66;;;9.41;63.16
61537;BME280;48695;53.480;-6.300;2023-04-03T03:01:30;102200.81;;;9.49;63.22
61537;BME280;48695;53.480;-6.300;2023-04-03T03:03:58;102191.28;;;9.48;63.09
61537;BME280;48695;53.480;-6.300;2023-04-03T03:06:24;102194.72;;;9.44;63.22
61537;BME280;48695;53.480;-6.300;2023-04-03T03:08:49;102191.22;;;9.42;63.44
61537;BME280;48695;53.480;-6.300;2023-04-03T03:11:15;102175.50;;;9.31;63.51
61537;BME280;48695;53.480;-6.300;2023-04-03T03:13:40;102163.31;;;9.27;63.60
61537;BME280;48695;53.480;-6.300;2023-04-03T03:16:07;102159.84;;;9.25;63.98
61537;BME280;48695;53.480;-6.300;2023-04-03T03:18:32;102165.91;;;9.26;64.03
61537;BME280;48695;53.480;-6.300;2023-04-03T03:21:00;102181.59;;;9.32;63.75
61537;BME280;48695;53.480;-6.300;2023-04-03T03:23:28;102180.72;;;9.30;63.46
61537;BME280;48695;53.480;-6.300;2023-04-03T03:25:57;102181.59;;;9.29;63.70
61537;BME280;48695;53.480;-6.300;2023-04-03T03:28:23;102186.75;;;9.26;64.24
61537;BME280;48695;53.480;-6.300;2023-04-03T03:30:49;102180.69;;;9.25;64.29
61537;BME280;48695;53.480;-6.300;2023-04-03T03:33:14;102178.03;;;9.21;64.48
61537;BME280;48695;53.480;-6.300;2023-04-03T03:35:41;102177.19;;;9.20;64.79
61537;BME280;48695;53.480;-6.300;2023-04-03T03:38:06;102178.03;;;9.22;64.69
61537;BME280;48695;53.480;-6.300;2023-04-03T03:40:32;102172.84;;;9.21;64.53
61537;BME280;48695;53.480;-6.300;2023-04-03T03:42:57;102167.63;;;9.18;64.39
61537;BME280;48695;53.480;-6.300;2023-04-03T03:45:23;102164.16;;;9.19;64.47
61537;BME280;48695;53.480;-6.300;2023-04-03T03:47:48;102174.56;;;9.19;64.62
61537;BME280;48695;53.480;-6.300;2023-04-03T03:50:13;102165.88;;;9.18;64.54
61537;BME280;48695;53.480;-6.300;2023-04-03T03:52:39;102164.97;;;9.16;65.08
61537;BME280;48695;53.480;-6.300;2023-04-03T03:55:05;102165.84;;;9.17;65.20
61537;BME280;48695;53.480;-6.300;2023-04-03T03:57:31;102162.38;;;9.15;65.03
61537;BME280;48695;53.480;-6.300;2023-04-03T03:59:56;102162.38;;;9.15;64.91
61537;BME280;48695;53.480;-6.300;2023-04-03T04:02:21;102161.50;;;9.14;65.19
61537;BME280;48695;53.480;-6.300;2023-04-03T04:04:47;102153.66;;;9.09;64.91
61537;BME280;48695;53.480;-6.300;2023-04-03T04:07:12;102161.50;;;9.14;65.08
61537;BME280;48695;53.480;-6.300;2023-04-03T04:09:38;102163.22;;;9.12;65.10
61537;BME280;48695;53.480;-6.300;2023-04-03T04:12:03;102164.13;;;9.13;65.20
61537;BME280;48695;53.480;-6.300;2023-04-03T04:14:28;102160.59;;;9.10;65.18
61537;BME280;48695;53.480;-6.300;2023-04-03T04:16:54;102163.22;;;9.09;65.28
61537;BME280;48695;53.480;-6.300;2023-04-03T04:19:19;102163.22;;;9.09;65.46
61537;BME280;48695;53.480;-6.300;2023-04-03T04:21:45;102165.81;;;9.07;65.47
61537;BME280;48695;53.480;-6.300;2023-04-03T04:24:10;102170.13;;;9.05;65.54
61537;BME280;48695;53.480;-6.300;2023-04-03T04:26:36;102172.72;;;9.05;65.40
61537;BME280;48695;53.480;-6.300;2023-04-03T04:29:01;102176.19;;;9.04;65.51
61537;BME280;48695;53.480;-6.300;2023-04-03T04:31:27;102166.63;;;9.02;65.61
61537;BME280;48695;53.480;-6.300;2023-04-03T04:33:53;102169.25;;;9.03;65.56
61537;BME280;48695;53.480;-6.300;2023-04-03T04:36:19;102166.66;;;9.03;65.21
61537;BME280;48695;53.480;-6.300;2023-04-03T04:38:44;102160.56;;;9.04;65.61
61537;BME280;48695;53.480;-6.300;2023-04-03T04:41:10;102144.00;;;8.95;65.50
61537;BME280;48695;53.480;-6.300;2023-04-03T04:43:35;102159.69;;;9.07;65.67
61537;BME280;48695;53.480;-6.300;2023-04-03T04:46:06;102158.88;;;9.09;65.27
61537;BME280;48695;53.480;-6.300;2023-04-03T04:48:32;102158.88;;;9.09;65.98
61537;BME280;48695;53.480;-6.300;2023-04-03T04:50:58;102158.91;;;9.13;65.76
61537;BME280;48695;53.480;-6.300;2023-04-03T04:53:23;102155.44;;;9.14;66.19
61537;BME280;48695;53.480;-6.300;2023-04-03T04:55:49;102150.25;;;9.20;66.37
61537;BME280;48695;53.480;-6.300;2023-04-03T04:58:14;102152.00;;;9.24;66.44
61537;BME280;48695;53.480;-6.300;2023-04-03T05:00:40;102152.03;;;9.28;66.14
61537;BME280;48695;53.480;-6.300;2023-04-03T05:03:05;102147.69;;;9.30;66.48
61537;BME280;48695;53.480;-6.300;2023-04-03T05:05:31;102135.53;;;9.28;66.00
61537;BME280;48695;53.480;-6.300;2023-04-03T05:07:56;102146.84;;;9.38;65.88
61537;BME280;48695;53.480;-6.300;2023-04-03T05:10:22;102148.63;;;9.40;65.81
61537;BME280;48695;53.480;-6.300;2023-04-03T05:12:47;102154.72;;;9.42;65.65
61537;BME280;48695;53.480;-6.300;2023-04-03T05:15:12;102153.88;;;9.43;65.72
61537;BME280;48695;53.480;-6.300;2023-04-03T05:17:38;102146.03;;;9.45;65.27
61537;BME280;48695;53.480;-6.300;2023-04-03T05:20:04;102132.97;;;9.34;65.45
61537;BME280;48695;53.480;-6.300;2023-04-03T05:22:30;102150.38;;;9.47;65.83
61537;BME280;48695;53.480;-6.300;2023-04-03T05:24:55;102157.38;;;9.50;65.73
61537;BME280;48695;53.480;-6.300;2023-04-03T05:27:21;102156.50;;;9.52;65.22
61537;BME280;48695;53.480;-6.300;2023-04-03T05:29:48;102153.03;;;9.55;65.92
61537;BME280;48695;53.480;-6.300;2023-04-03T05:32:14;102155.69;;;9.58;65.58
61537;BME280;48695;53.480;-6.300;2023-04-03T05:34:39;102131.28;;;9.48;66.14
61537;BME280;48695;53.480;-6.300;2023-04-03T05:37:04;102145.22;;;9.56;66.05
61537;BME280;48695;53.480;-6.300;2023-04-03T05:39:30;102154.84;;;9.64;65.46
61537;BME280;48695;53.480;-6.300;2023-04-03T05:41:57;102161.78;;;9.65;65.71
61537;BME280;48695;53.480;-6.300;2023-04-03T05:44:22;102164.41;;;9.68;65.75
61537;BME280;48695;53.480;-6.300;2023-04-03T05:46:47;102167.91;;;9.70;65.85
61537;BME280;48695;53.480;-6.300;2023-04-03T05:49:13;102164.41;;;9.71;65.86
61537;BME280;48695;53.480;-6.300;2023-04-03T05:51:39;102165.28;;;9.73;65.62
61537;BME280;48695;53.480;-6.300;2023-04-03T05:54:13;102158.34;;;9.76;65.18
61537;BME280;48695;53.480;-6.300;2023-04-03T05:56:41;102166.19;;;9.78;65.52
61537;BME280;48695;53.480;-6.300;2023-04-03T05:59:06;102147.91;;;9.70;65.41
61537;BME280;48695;53.480;-6.300;2023-04-03T06:01:32;102160.13;;;9.85;65.13
61537;BME280;48695;53.480;-6.300;2023-04-03T06:03:59;102162.72;;;9.88;65.34
61537;BME280;48695;53.480;-6.300;2023-04-03T06:06:24;102158.41;;;9.90;65.02
61537;BME280;48695;53.480;-6.300;2023-04-03T06:08:50;102168.84;;;9.93;65.37
61537;BME280;48695;53.480;-6.300;2023-04-03T06:11:16;102153.22;;;9.95;65.20
61537;BME280;48695;53.480;-6.300;2023-04-03T06:13:41;102157.56;;;10.00;65.31
61537;BME280;48695;53.480;-6.300;2023-04-03T06:16:10;102158.47;;;10.05;64.88
61537;BME280;48695;53.480;-6.300;2023-04-03T06:18:36;102152.34;;;10.03;64.82
61537;BME280;48695;53.480;-6.300;2023-04-03T06:21:02;102157.59;;;10.12;65.08
61537;BME280;48695;53.480;-6.300;2023-04-03T06:23:28;102148.91;;;10.10;65.86
61537;BME280;48695;53.480;-6.300;2023-04-03T06:25:53;102159.38;;;10.21;64.47
61537;BME280;48695;53.480;-6.300;2023-04-03T06:28:19;102153.31;;;10.25;65.32
61537;BME280;48695;53.480;-6.300;2023-04-03T06:30:45;102146.38;;;10.30;65.02
61537;BME280;48695;53.480;-6.300;2023-04-03T06:33:10;102138.53;;;10.32;65.79
61537;BME280;48695;53.480;-6.300;2023-04-03T06:35:36;102142.91;;;10.34;65.83
61537;BME280;48695;53.480;-6.300;2023-04-03T06:38:03;102151.59;;;10.39;65.91
61537;BME280;48695;53.480;-6.300;2023-04-03T06:40:34;102155.06;;;10.43;65.40
61537;BME280;48695;53.480;-6.300;2023-04-03T06:43:00;102155.97;;;10.45;65.54
61537;BME280;48695;53.480;-6.300;2023-04-03T06:45:26;102150.72;;;10.42;65.70
61537;BME280;48695;53.480;-6.300;2023-04-03T06:47:52;102166.41;;;10.51;65.14
61537;BME280;48695;53.480;-6.300;2023-04-03T06:50:18;102162.94;;;10.52;65.03
61537;BME280;48695;53.480;-6.300;2023-04-03T06:52:43;102171.66;;;10.54;65.75
61537;BME280;48695;53.480;-6.300;2023-04-03T06:55:09;102168.16;;;10.55;65.22
61537;BME280;48695;53.480;-6.300;2023-04-03T06:57:35;102169.88;;;10.58;64.83
61537;BME280;48695;53.480;-6.300;2023-04-03T07:00:01;102158.56;;;10.47;65.35
61537;BME280;48695;53.480;-6.300;2023-04-03T07:02:26;102162.06;;;10.56;65.04
61537;BME280;48695;53.480;-6.300;2023-04-03T07:04:52;102152.47;;;10.52;64.83
61537;BME280;48695;53.480;-6.300;2023-04-03T07:07:17;102165.53;;;10.63;65.01
61537;BME280;48695;53.480;-6.300;2023-04-03T07:09:43;102168.19;;;10.64;64.40
61537;BME280;48695;53.480;-6.300;2023-04-03T07:12:08;102162.94;;;10.64;64.75
61537;BME280;48695;53.480;-6.300;2023-04-03T07:14:34;102167.28;;;10.64;64.56
61537;BME280;48695;53.480;-6.300;2023-04-03T07:16:59;102166.41;;;10.63;64.65
61537;BME280;48695;53.480;-6.300;2023-04-03T07:19:25;102159.47;;;10.59;64.35
61537;BME280;48695;53.480;-6.300;2023-04-03T07:21:53;102164.66;;;10.69;63.56
61537;BME280;48695;53.480;-6.300;2023-04-03T07:24:18;102160.31;;;10.63;64.11
61537;BME280;48695;53.480;-6.300;2023-04-03T07:26:43;102176.88;;;10.67;63.90
61537;BME280;48695;53.480;-6.300;2023-04-03T07:29:10;102161.19;;;10.63;64.08
61537;BME280;48695;53.480;-6.300;2023-04-03T07:31:35;102181.22;;;10.69;63.55
61537;BME280;48695;53.480;-6.300;2023-04-03T07:34:02;102173.41;;;10.71;63.85
61537;BME280;48695;53.480;-6.300;2023-04-03T07:36:27;102173.38;;;10.74;63.48
61537;BME280;48695;53.480;-6.300;2023-04-03T07:38:54;102167.28;;;10.73;63.62
61537;BME280;48695;53.480;-6.300;2023-04-03T07:41:19;102175.13;;;10.76;63.59
61537;BME280;48695;53.480;-6.300;2023-04-03T07:43:45;102169.03;;;10.80;63.78
61537;BME280;48695;53.480;-6.300;2023-04-03T07:46:12;102169.03;;;10.83;64.12
61537;BME280;48695;53.480;-6.300;2023-04-03T07:48:37;102176.88;;;10.86;63.84
61537;BME280;48695;53.480;-6.300;2023-04-03T07:51:04;102194.28;;;10.89;63.46
61537;BME280;48695;53.480;-6.300;2023-04-03T07:53:30;102178.59;;;10.89;63.35
61537;BME280;48695;53.480;-6.300;2023-04-03T07:55:57;102185.59;;;10.90;63.07
61537;BME280;48695;53.480;-6.300;2023-04-03T07:58:23;102183.81;;;10.89;63.41
61537;BME280;48695;53.480;-6.300;2023-04-03T08:00:48;102191.69;;;10.87;63.31
61537;BME280;48695;53.480;-6.300;2023-04-03T08:03:14;102185.59;;;10.90;63.57
61537;BME280;48695;53.480;-6.300;2023-04-03T08:05:42;102190.81;;;10.90;63.54
61537;BME280;48695;53.480;-6.300;2023-04-03T08:08:09;102182.09;;;10.91;63.51
61537;BME280;48695;53.480;-6.300;2023-04-03T08:10:35;102192.56;;;10.96;63.28
61537;BME280;48695;53.480;-6.300;2023-04-03T08:13:02;102187.31;;;10.97;63.73
61537;BME280;48695;53.480;-6.300;2023-04-03T08:15:27;102184.69;;;10.99;64.04
61537;BME280;48695;53.480;-6.300;2023-04-03T08:17:53;102190.81;;;11.05;63.91
61537;BME280;48695;53.480;-6.300;2023-04-03T08:20:19;102192.53;;;11.12;63.78
61537;BME280;48695;53.480;-6.300;2023-04-03T08:22:45;102186.44;;;11.18;63.49
61537;BME280;48695;53.480;-6.300;2023-04-03T08:25:10;102196.00;;;11.24;63.37
61537;BME280;48695;53.480;-6.300;2023-04-03T08:27:36;102187.31;;;11.22;63.52
61537;BME280;48695;53.480;-6.300;2023-04-03T08:30:02;102196.88;;;11.32;63.60
61537;BME280;48695;53.480;-6.300;2023-04-03T08:32:29;102189.03;;;11.32;63.28
61537;BME280;48695;53.480;-6.300;2023-04-03T08:34:54;102184.66;;;11.38;63.25
61537;BME280;48695;53.480;-6.300;2023-04-03T08:37:20;102190.75;;;11.42;62.86
61537;BME280;48695;53.480;-6.300;2023-04-03T08:39:46;102170.72;;;11.36;63.13
61537;BME280;48695;53.480;-6.300;2023-04-03T08:48:26;102213.34;;;11.67;62.77
61537;BME280;48695;53.480;-6.300;2023-04-03T08:50:57;102208.97;;;11.69;62.17
61537;BME280;48695;53.480;-6.300;2023-04-03T08:53:29;102208.09;;;11.72;62.14
61537;BME280;48695;53.480;-6.300;2023-04-03T08:55:58;102195.88;;;11.69;62.39
61537;BME280;48695;53.480;-6.300;2023-04-03T08:58:29;102195.03;;;11.72;62.48
61537;BME280;48695;53.480;-6.300;2023-04-03T09:03:23;102202.84;;;11.74;62.39
61537;BME280;48695;53.480;-6.300;2023-04-03T09:05:55;102204.56;;;11.81;62.39
61537;BME280;48695;53.480;-6.300;2023-04-03T09:08:32;102196.75;;;11.84;62.50
61537;BME280;48695;53.480;-6.300;2023-04-03T09:11:12;102190.63;;;11.88;62.66
61537;BME280;48695;53.480;-6.300;2023-04-03T09:14:15;102192.31;;;12.00;62.37
61537;BME280;48695;53.480;-6.300;2023-04-03T09:16:55;102193.19;;;12.03;62.50
61537;BME280;48695;53.480;-6.300;2023-04-03T09:19:38;102193.97;;;12.17;62.87
61537;BME280;48695;53.480;-6.300;2023-04-03T09:22:20;102187.81;;;12.25;62.64
61537;BME280;48695;53.480;-6.300;2023-04-03T09:24:50;102197.31;;;12.41;61.83
61537;BME280;48695;53.480;-6.300;2023-04-03T09:27:17;102208.63;;;12.51;62.42
61537;BME280;48695;53.480;-6.300;2023-04-03T09:29:44;102210.25;;;12.67;62.43
61537;BME280;48695;53.480;-6.300;2023-04-03T09:32:31;102200.47;;;12.89;62.36
61537;BME280;48695;53.480;-6.300;2023-04-03T09:35:04;102198.63;;;13.03;61.13
61537;BME280;48695;53.480;-6.300;2023-04-03T09:37:45;102199.31;;;13.25;61.66
61537;BME280;48695;53.480;-6.300;2023-04-03T09:43:17;102185.75;;;13.63;60.61
61537;BME280;48695;53.480;-6.300;2023-04-03T09:45:45;102173.31;;;13.81;60.37
61537;BME280;48695;53.480;-6.300;2023-04-03T09:50:53;102184.91;;;14.31;61.02
61537;BME280;48695;53.480;-6.300;2023-04-03T09:53:50;102180.84;;;14.68;61.73
61537;BME280;48695;53.480;-6.300;2023-04-03T09:58:44;102177.50;;;15.11;58.89
61537;BME280;48695;53.480;-6.300;2023-04-03T10:01:33;102175.16;;;15.41;59.96
61537;BME280;48695;53.480;-6.300;2023-04-03T10:04:17;102181.75;;;15.65;57.79
61537;BME280;48695;53.480;-6.300;2023-04-03T10:06:51;102166.78;;;15.68;56.67
61537;BME280;48695;53.480;-6.300;2023-04-03T10:09:22;102203.50;;;15.74;55.42
61537;BME280;48695;53.480;-6.300;2023-04-03T10:14:34;102186.25;;;15.58;54.59
61537;BME280;48695;53.480;-6.300;2023-04-03T10:22:15;102182.69;;;15.14;55.45
61537;BME280;48695;53.480;-6.300;2023-04-03T10:28:00;102169.13;;;14.88;56.13
61537;BME280;48695;53.480;-6.300;2023-04-03T10:31:05;102177.13;;;14.82;56.13
61537;BME280;48695;53.480;-6.300;2023-04-03T10:34:06;102180.72;;;14.74;56.38
61537;BME280;48695;53.480;-6.300;2023-04-03T10:36:47;102171.28;;;14.63;56.31
61537;BME280;48695;53.480;-6.300;2023-04-03T10:39:36;102170.56;;;14.53;56.22
61537;BME280;48695;53.480;-6.300;2023-04-03T10:44:52;102182.25;;;14.32;56.22
61537;BME280;48695;53.480;-6.300;2023-04-03T10:52:40;102177.94;;;14.26;57.57
61537;BME280;48695;53.480;-6.300;2023-04-03T10:58:29;102170.75;;;14.38;56.90
61537;BME280;48695;53.480;-6.300;2023-04-03T11:01:01;102169.88;;;14.39;56.65
61537;BME280;48695;53.480;-6.300;2023-04-03T11:03:36;102183.00;;;14.39;56.34
61537;BME280;48695;53.480;-6.300;2023-04-03T11:06:08;102167.31;;;14.36;56.69
61537;BME280;48695;53.480;-6.300;2023-04-03T11:08:39;102176.13;;;14.32;56.49
61537;BME280;48695;53.480;-6.300;2023-04-03T11:11:13;102171.69;;;14.34;56.07
61537;BME280;48695;53.480;-6.300;2023-04-03T11:16:39;102172.59;;;14.33;57.24
61537;BME280;48695;53.480;-6.300;2023-04-03T11:19:20;102170.63;;;14.48;57.72
61537;BME280;48695;53.480;-6.300;2023-04-03T11:22:05;102158.97;;;14.66;57.16
61537;BME280;48695;53.480;-6.300;2023-04-03T11:24:36;102163.13;;;14.79;56.30
61537;BME280;48695;53.480;-6.300;2023-04-03T11:27:04;102115.25;;;14.61;56.46
61537;BME280;48695;53.480;-6.300;2023-04-03T11:29:38;102159.25;;;15.02;56.69
61537;BME280;48695;53.480;-6.300;2023-04-03T11:34:50;102163.44;;;15.12;55.30
61537;BME280;48695;53.480;-6.300;2023-04-03T11:37:34;102157.22;;;15.16;55.79
61537;BME280;48695;53.480;-6.300;2023-04-03T11:40:08;102164.25;;;15.14;55.34
61537;BME280;48695;53.480;-6.300;2023-04-03T11:42:48;102156.44;;;15.11;55.17
61537;BME280;48695;53.480;-6.300;2023-04-03T11:47:53;102160.72;;;15.15;55.45
61537;BME280;48695;53.480;-6.300;2023-04-03T12:05:56;102161.13;;;16.63;55.75
61537;BME280;48695;53.480;-6.300;2023-04-03T12:29:27;102148.31;;;18.90;50.17
61537;BME280;48695;53.480;-6.300;2023-04-03T12:34:44;102138.88;;;19.33;49.35
61537;BME280;48695;53.480;-6.300;2023-04-03T12:39:55;102116.06;;;19.77;48.74
61537;BME280;48695;53.480;-6.300;2023-04-03T12:42:37;102115.22;;;19.99;46.84
61537;BME280;48695;53.480;-6.300;2023-04-03T12:45:21;102116.19;;;20.40;47.84
61537;BME280;48695;53.480;-6.300;2023-04-03T12:47:49;102120.63;;;20.61;46.22
61537;BME280;48695;53.480;-6.300;2023-04-03T12:50:36;102114.75;;;20.95;48.79
61537;BME280;48695;53.480;-6.300;2023-04-03T12:53:05;102115.78;;;21.12;45.34
61537;BME280;48695;53.480;-6.300;2023-04-03T12:55:31;102115.25;;;21.24;43.21
61537;BME280;48695;53.480;-6.300;2023-04-03T12:57:57;102114.00;;;21.33;42.63
61537;BME280;48695;53.480;-6.300;2023-04-03T13:00:40;102118.03;;;21.41;45.30
61537;BME280;48695;53.480;-6.300;2023-04-03T13:03:06;102109.94;;;21.24;41.99
61537;BME280;48695;53.480;-6.300;2023-04-03T13:05:45;102114.41;;;21.03;42.42
61537;BME280;48695;53.480;-6.300;2023-04-03T13:08:12;102117.91;;;20.83;42.92
61537;BME280;48695;53.480;-6.300;2023-04-03T13:13:18;102109.22;;;20.37;43.38
61537;BME280;48695;53.480;-6.300;2023-04-03T13:15:46;102118.13;;;20.14;43.62
61537;BME280;48695;53.480;-6.300;2023-04-03T13:20:48;102113.69;;;19.69;44.39
61537;BME280;48695;53.480;-6.300;2023-04-03T13:23:16;102102.84;;;19.52;44.69
61537;BME280;48695;53.480;-6.300;2023-04-03T13:25:44;102098.81;;;19.42;45.30
61537;BME280;48695;53.480;-6.300;2023-04-03T13:28:11;102106.81;;;19.40;47.60
61537;BME280;48695;53.480;-6.300;2023-04-03T13:30:39;102098.28;;;19.32;46.27
61537;BME280;48695;53.480;-6.300;2023-04-03T13:33:19;102080.53;;;19.34;47.50
61537;BME280;48695;53.480;-6.300;2023-04-03T13:35:46;102095.78;;;19.51;46.39
61537;BME280;48695;53.480;-6.300;2023-04-03T13:40:48;102094.00;;;19.99;46.32
61537;BME280;48695;53.480;-6.300;2023-04-03T13:43:21;102085.97;;;20.22;45.87
61537;BME280;48695;53.480;-6.300;2023-04-03T13:46:23;102084.97;;;20.46;46.61
61537;BME280;48695;53.480;-6.300;2023-04-03T13:48:51;102089.03;;;20.55;43.68
61537;BME280;48695;53.480;-6.300;2023-04-03T13:51:23;102084.13;;;20.66;43.61
61537;BME280;48695;53.480;-6.300;2023-04-03T13:56:22;102077.44;;;20.98;43.51
61537;BME280;48695;53.480;-6.300;2023-04-03T14:04:19;102076.25;;;21.45;43.50
61537;BME280;48695;53.480;-6.300;2023-04-03T14:06:46;102058.50;;;21.45;41.73
61537;BME280;48695;53.480;-6.300;2023-04-03T14:09:13;102077.09;;;21.64;42.17
61537;BME280;48695;53.480;-6.300;2023-04-03T14:11:42;102068.69;;;21.73;41.35
61537;BME280;48695;53.480;-6.300;2023-04-03T14:14:23;102066.13;;;21.89;41.86
61537;BME280;48695;53.480;-6.300;2023-04-03T14:16:55;102064.75;;;21.99;42.48
61537;BME280;48695;53.480;-6.300;2023-04-03T14:19:24;102052.72;;;22.10;40.81
61537;BME280;48695;53.480;-6.300;2023-04-03T14:21:50;102049.81;;;22.16;40.84
61537;BME280;48695;53.480;-6.300;2023-04-03T14:24:18;102048.25;;;22.29;40.81
61537;BME280;48695;53.480;-6.300;2023-04-03T14:26:45;102050.91;;;22.29;39.52
61537;BME280;48695;53.480;-6.300;2023-04-03T14:29:11;102055.41;;;22.46;39.23
61537;BME280;48695;53.480;-6.300;2023-04-03T14:31:37;102046.63;;;22.61;42.87
61537;BME280;48695;53.480;-6.300;2023-04-03T14:34:03;102042.44;;;22.56;39.47
61537;BME280;48695;53.480;-6.300;2023-04-03T14:36:29;102041.06;;;22.66;38.41
61537;BME280;48695;53.480;-6.300;2023-04-03T14:38:56;102048.72;;;22.72;38.21